Corbin City, New Jersey
Current Conditions -  °F | °C
As of 6:54 PM on Thursday 27 Nov 2014 (Local Time) from KMIV Reporting Station
Clear Clear  
Wind Chill: 27°   Ceiling: Unl
Heat Index: 33°   Visibility: 10mi
Dew Point: 27°   Wind: 7mph
Humidity: 78%   Direction: 290°WNW
Pressure: 30.08"   Gusts: NA
Location:  39.2589°N, 74.8124°W
Report Text: KMIV 272354Z AUTO 29006KT 10SM CLR 01/M03 A3008 RMK AO2 SLP187 T00061028 10067 20006 51019
Loading
Personal Weather Stations






























Interactive Weather Map New forecast layout! Learn more

10-Day Weather Forecast

Advertisements
Track Severe Weather on mobile